Time;durP1;ratioP1;P1;durP2;ratioP2;P2;SDS_P1;SDS_P2;PMS_P1;PMS_P2;Temp;Humidity;BMP_temperature;BMP_pressure;BME280_temperature;BME280_humidity;BME280_pressure;Samples;Min_cycle;Max_cycle;Signal;HPM_P1;HPM_P2
2024/02/17 00:00:48;;;;;;;11.87;10.33;;;;;;;13.55;68.22;96796.25;5005883;28;20559;-68
2024/02/17 00:03:17;;;;;;;14.97;10.70;;;;;;;13.57;68.44;96793.53;5005882;28;20551;-68
2024/02/17 00:05:43;;;;;;;13.00;9.43;;;;;;;13.57;68.29;96804.09;5005541;28;20432;-69
2024/02/17 00:08:08;;;;;;;13.23;9.20;;;;;;;13.57;68.38;96798.81;5004142;28;20439;-68
2024/02/17 00:10:33;;;;;;;11.27;10.17;;;;;;;13.55;68.43;96800.66;5005973;28;20287;-69
2024/02/17 00:12:59;;;;;;;12.43;9.20;;;;;;;13.51;68.67;96801.75;5006087;28;20172;-68
2024/02/17 00:15:24;;;;;;;12.93;9.90;;;;;;;13.48;68.48;96807.19;5005783;28;20180;-68
2024/02/17 00:17:49;;;;;;;13.50;11.77;;;;;;;13.48;68.65;96807.19;5005717;28;20195;-67
2024/02/17 00:20:17;;;;;;;14.60;11.90;;;;;;;13.50;68.53;96808.81;5005688;28;20183;-67
2024/02/17 00:22:42;;;;;;;11.57;9.53;;;;;;;13.45;68.92;96810.81;5011036;28;20259;-68
2024/02/17 00:25:08;;;;;;;12.43;9.80;;;;;;;13.43;69.62;96810.03;5005734;28;20506;-68
2024/02/17 00:27:33;;;;;;;12.10;10.80;;;;;;;13.35;69.71;96812.22;5006022;28;20184;-68
2024/02/17 00:29:59;;;;;;;11.40;10.07;;;;;;;13.33;69.84;96817.53;5006572;28;20180;-68
2024/02/17 00:32:25;;;;;;;16.50;10.53;;;;;;;13.27;70.36;96812.56;5006422;28;20234;-69
2024/02/17 00:34:50;;;;;;;12.80;10.70;;;;;;;13.26;70.39;96820.53;5012014;28;20172;-68
2024/02/17 00:37:15;;;;;;;12.50;10.07;;;;;;;13.25;70.44;96824.94;5025551;28;20195;-68
2024/02/17 00:39:41;;;;;;;13.00;9.77;;;;;;;13.30;70.84;96822.97;5025464;28;20285;-68
2024/02/17 00:42:07;;;;;;;11.40;10.30;;;;;;;13.25;71.16;96824.06;5025780;28;20217;-67
2024/02/17 00:44:32;;;;;;;11.20;9.17;;;;;;;13.25;71.40;96824.06;5025359;28;20741;-68
2024/02/17 00:46:58;;;;;;;10.90;9.73;;;;;;;13.27;71.36;96822.22;5012925;28;20167;-68
2024/02/17 00:49:23;;;;;;;11.60;9.13;;;;;;;13.27;70.86;96832.75;5005155;28;20196;-68
2024/02/17 00:51:49;;;;;;;10.70;9.60;;;;;;;13.27;71.08;96833.63;5005143;28;20337;-68
2024/02/17 00:54:14;;;;;;;10.90;8.93;;;;;;;13.31;71.15;96831.72;5005219;28;20885;-68
2024/02/17 00:56:39;;;;;;;10.10;9.10;;;;;;;13.21;72.01;96839.19;5005605;28;20187;-68
2024/02/17 00:59:05;;;;;;;11.40;10.20;;;;;;;13.22;71.71;96840.88;5005410;28;20204;-68
2024/02/17 01:01:31;;;;;;;17.73;10.07;;;;;;;13.21;71.95;96841.81;5004923;28;20262;-67
2024/02/17 01:03:56;;;;;;;10.33;9.30;;;;;;;13.17;72.36;96845.53;5005413;28;20538;-67
2024/02/17 01:06:22;;;;;;;14.90;9.40;;;;;;;13.16;72.41;96851.72;5006339;28;20561;-68
2024/02/17 01:08:47;;;;;;;10.93;9.73;;;;;;;13.16;72.58;96851.72;5009448;28;20203;-67
2024/02/17 01:11:13;;;;;;;11.67;10.40;;;;;;;13.14;72.99;96853.56;5009621;28;20403;-68
2024/02/17 01:13:40;;;;;;;11.83;10.10;;;;;;;13.14;72.77;96857.06;5008956;28;20301;-68
2024/02/17 01:16:07;;;;;;;11.33;10.13;;;;;;;13.07;73.34;96854.78;5008748;28;20184;-68
2024/02/17 01:18:32;;;;;;;12.00;9.43;;;;;;;13.06;73.85;96856.56;5008562;28;20442;-69
2024/02/17 01:20:58;;;;;;;12.10;9.40;;;;;;;12.95;73.84;96855.38;5009052;28;21084;-67
2024/02/17 01:23:23;;;;;;;13.17;9.77;;;;;;;12.94;74.84;96857.13;5008665;28;20204;-67
2024/02/17 01:25:49;;;;;;;10.90;9.80;;;;;;;12.85;74.84;96855.78;5009173;28;21112;-67
2024/02/17 01:28:14;;;;;;;17.13;10.40;;;;;;;12.88;74.27;96852.16;5009120;28;20196;-68
2024/02/17 01:30:39;;;;;;;14.10;11.10;;;;;;;12.82;75.42;96861.16;5009765;28;20677;-69
2024/02/17 01:33:05;;;;;;;10.77;9.67;;;;;;;12.74;75.04;96852.78;5015344;28;20187;-68
2024/02/17 01:35:30;;;;;;;11.97;10.77;;;;;;;12.78;75.04;96861.38;5028058;28;20187;-67
2024/02/17 01:37:56;;;;;;;14.87;10.50;;;;;;;12.78;75.85;96864.88;5039943;28;20196;-68
2024/02/17 01:40:22;;;;;;;10.33;9.37;;;;;;;12.89;74.85;96859.13;5038674;28;20199;-68
2024/02/17 01:42:47;;;;;;;11.13;9.93;;;;;;;12.83;75.18;96870.78;5032753;28;20207;-69
2024/02/17 01:45:12;;;;;;;12.10;9.33;;;;;;;12.82;75.56;96874.34;5028156;28;20871;-68
2024/02/17 01:47:38;;;;;;;14.90;10.13;;;;;;;12.85;75.68;96868.06;5010546;28;20172;-68
2024/02/17 01:50:05;;;;;;;12.90;10.03;;;;;;;12.83;75.25;96870.78;5008142;28;20184;-68
2024/02/17 01:52:32;;;;;;;12.03;10.07;;;;;;;12.81;74.97;96872.63;5008303;28;20172;-68
2024/02/17 01:54:59;;;;;;;12.63;11.30;;;;;;;12.82;75.65;96882.25;5008562;28;20407;-68
2024/02/17 01:57:24;;;;;;;13.67;10.03;;;;;;;12.90;75.67;96877.50;5008533;28;20411;-68
2024/02/17 01:59:52;;;;;;;10.17;9.17;;;;;;;12.80;75.91;96884.09;5008107;28;20441;-68
2024/02/17 02:02:17;;;;;;;15.40;10.13;;;;;;;12.94;75.36;96888.72;5008788;28;20216;-67
2024/02/17 02:04:43;;;;;;;13.20;10.23;;;;;;;12.77;76.05;96892.13;5010839;28;20824;-67
2024/02/17 02:07:08;;;;;;;14.20;10.17;;;;;;;12.83;75.82;96883.13;5010686;28;20180;-68
2024/02/17 02:09:34;;;;;;;12.53;9.90;;;;;;;12.84;75.98;96888.28;5013676;28;20484;-68
2024/02/17 02:11:59;;;;;;;10.60;9.57;;;;;;;12.88;75.88;96892.50;5021564;28;20193;-68
2024/02/17 02:14:25;;;;;;;13.23;10.07;;;;;;;12.73;75.50;96887.91;5031596;28;20180;-67
2024/02/17 02:16:51;;;;;;;14.67;9.80;;;;;;;12.83;75.21;96888.38;5032956;28;20207;-69
2024/02/17 02:19:16;;;;;;;13.37;10.97;;;;;;;12.77;75.91;96892.13;5018885;28;20827;-68
2024/02/17 02:21:43;;;;;;;15.70;10.23;;;;;;;12.78;76.46;96882.44;5009711;28;20714;-67
2024/02/17 02:24:08;;;;;;;11.53;9.63;;;;;;;12.80;76.11;96884.09;5008635;28;20176;-67
2024/02/17 02:26:35;;;;;;;14.47;9.83;;;;;;;12.73;76.08;96887.91;5008460;28;21386;-68
2024/02/17 02:29:01;;;;;;;10.17;9.23;;;;;;;12.81;75.53;96891.06;5007447;28;20259;-68
2024/02/17 02:31:27;;;;;;;13.03;10.10;;;;;;;12.79;75.78;96892.91;5007889;28;20416;-68
2024/02/17 02:33:52;;;;;;;14.43;9.63;;;;;;;12.78;76.18;96895.63;5007800;28;20984;-68
2024/02/17 02:36:20;;;;;;;10.33;9.30;;;;;;;12.77;75.74;96897.41;5007626;28;20187;-68
2024/02/17 02:38:46;;;;;;;12.47;11.10;;;;;;;12.77;76.70;96897.41;5007752;28;20383;-68
2024/02/17 02:41:11;;;;;;;9.90;8.90;;;;;;;12.78;75.57;96898.25;5007026;28;20986;-68
2024/02/17 02:43:39;;;;;;;12.00;8.70;;;;;;;12.70;76.15;96901.22;5007168;28;20340;-68
2024/02/17 02:46:05;;;;;;;12.07;9.97;;;;;;;12.74;76.06;96900.19;5006952;28;20318;-68
2024/02/17 02:48:31;;;;;;;9.57;8.67;;;;;;;12.76;76.39;96902.75;5007518;28;21085;-68
2024/02/17 02:50:57;;;;;;;11.00;9.77;;;;;;;12.57;76.77;96902.72;5006891;28;20421;-69
2024/02/17 02:53:23;;;;;;;13.87;10.10;;;;;;;12.68;76.99;96900.44;5006994;28;20415;-68
2024/02/17 02:55:48;;;;;;;10.97;9.87;;;;;;;12.70;76.47;96906.50;5007247;28;20996;-68
2024/02/17 02:58:14;;;;;;;12.03;9.50;;;;;;;12.68;76.08;96897.81;5006980;28;20192;-68
2024/02/17 03:00:39;;;;;;;11.47;10.23;;;;;;;12.68;76.68;96897.81;5007104;28;20242;-68
2024/02/17 03:03:04;;;;;;;11.83;10.73;;;;;;;12.76;76.11;96906.25;5006822;28;20207;-68
2024/02/17 03:05:33;;;;;;;11.50;9.27;;;;;;;12.79;75.51;96905.25;5006543;28;20264;-68
2024/02/17 03:07:59;;;;;;;10.70;9.60;;;;;;;12.72;76.92;96915.19;5012915;28;20200;-68
2024/02/17 03:10:24;;;;;;;10.47;9.57;;;;;;;12.66;77.05;96916.31;5005350;28;20435;-68
2024/02/17 03:12:49;;;;;;;10.70;9.60;;;;;;;12.69;76.61;96920.59;5006631;28;20191;-67
2024/02/17 03:15:15;;;;;;;13.47;10.57;;;;;;;12.65;77.14;96919.00;5006540;28;20191;-68
2024/02/17 03:17:40;;;;;;;11.57;10.37;;;;;;;12.76;76.63;96924.66;5006563;28;20200;-68
2024/02/17 03:20:06;;;;;;;10.13;9.13;;;;;;;12.78;76.01;96930.72;5006858;28;20722;-68
2024/02/17 03:22:33;;;;;;;12.40;7.97;;;;;;;12.81;76.23;96935.00;5007044;28;20715;-68
2024/02/17 03:24:58;;;;;;;9.23;8.33;;;;;;;12.83;75.42;96934.00;5006532;28;20195;-68
2024/02/17 03:27:23;;;;;;;9.80;8.67;;;;;;;12.76;76.36;96937.84;5006219;28;20419;-68
2024/02/17 03:29:49;;;;;;;8.20;7.50;;;;;;;12.69;76.04;96933.75;5006087;28;20259;-68
2024/02/17 03:32:14;;;;;;;10.00;8.23;;;;;;;12.73;75.79;96937.94;5006106;28;20226;-67
2024/02/17 03:34:41;;;;;;;10.87;9.07;;;;;;;12.74;75.98;96939.69;5010758;28;20202;-68
2024/02/17 03:37:07;;;;;;;9.37;8.50;;;;;;;12.69;76.89;96939.88;5025961;28;20191;-68
2024/02/17 03:39:33;;;;;;;13.03;8.10;;;;;;;12.63;77.12;96942.75;5025742;28;20541;-67
2024/02/17 03:41:59;;;;;;;8.37;7.57;;;;;;;12.68;76.26;96946.09;5025562;28;20207;-68
2024/02/17 03:44:25;;;;;;;15.90;7.93;;;;;;;12.67;76.46;96954.03;5025973;28;20414;-68
2024/02/17 03:46:50;;;;;;;9.60;8.20;;;;;;;12.67;76.44;96956.66;5025928;28;20261;-67
2024/02/17 03:49:20;;;;;;;9.43;7.37;;;;;;;12.68;76.76;96956.63;5025646;28;20203;-67
2024/02/17 03:51:45;;;;;;;9.20;7.20;;;;;;;12.69;76.93;96958.31;5025664;28;20175;-67
2024/02/17 03:54:11;;;;;;;10.13;7.50;;;;;;;12.71;76.44;96960.88;5025656;28;20476;-68
2024/02/17 03:56:36;;;;;;;9.20;8.20;;;;;;;12.72;76.57;96959.94;5025825;28;20558;-68
2024/02/17 03:59:02;;;;;;;9.70;8.80;;;;;;;12.82;75.53;96969.16;5025826;28;20232;-68
2024/02/17 04:01:34;;;;;;;9.63;6.87;;;;;;;12.71;76.56;96963.53;5025518;28;20233;-68
2024/02/17 04:04:03;;;;;;;8.43;6.97;;;;;;;12.64;77.09;96965.56;5025622;28;20183;-68
2024/02/17 04:06:28;;;;;;;12.63;7.63;;;;;;;12.71;76.42;96964.38;5025549;28;20406;-68
2024/02/17 04:08:53;;;;;;;7.90;6.80;;;;;;;12.54;77.33;96973.91;5025268;28;20457;-68
2024/02/17 04:11:19;;;;;;;11.07;6.30;;;;;;;12.56;76.88;96978.19;5025012;28;20252;-68
2024/02/17 04:13:45;;;;;;;8.23;7.30;;;;;;;12.74;76.11;96981.81;5025611;28;20187;-67
2024/02/17 04:16:10;;;;;;;7.07;6.37;;;;;;;12.69;75.75;96983.78;5026148;28;20183;-68
2024/02/17 04:18:36;;;;;;;9.70;7.43;;;;;;;12.62;76.14;96984.97;5025799;28;20210;-68
2024/02/17 04:21:03;;;;;;;8.20;6.60;;;;;;;12.63;76.30;96984.03;5025305;28;20190;-69
2024/02/17 04:23:29;;;;;;;8.57;7.33;;;;;;;12.61;76.92;96994.63;5025005;28;20227;-68
2024/02/17 04:25:56;;;;;;;10.57;8.53;;;;;;;12.54;76.91;97001.09;5025362;28;20501;-68
2024/02/17 04:28:21;;;;;;;8.30;6.80;;;;;;;12.57;77.62;97000.97;5024911;28;20203;-68
2024/02/17 04:30:47;;;;;;;10.30;7.40;;;;;;;12.64;76.46;97005.06;5025606;28;20425;-68
2024/02/17 04:33:12;;;;;;;9.70;7.57;;;;;;;12.60;77.05;97006.09;5024983;28;20178;-68
2024/02/17 04:35:37;;;;;;;10.20;7.30;;;;;;;12.63;76.20;97013.00;5025108;28;20226;-67
2024/02/17 04:38:03;;;;;;;9.07;7.20;;;;;;;12.58;76.67;97017.63;5025059;28;20591;-68
2024/02/17 04:40:28;;;;;;;10.73;8.87;;;;;;;12.65;76.97;97022.56;5025050;28;20647;-67
2024/02/17 04:42:56;;;;;;;11.90;7.70;;;;;;;12.63;77.41;97024.38;5029289;28;20199;-67
2024/02/17 04:45:23;;;;;;;9.60;8.00;;;;;;;12.67;76.18;97028.63;5029898;28;20179;-67
2024/02/17 04:47:48;;;;;;;8.53;7.70;;;;;;;12.57;76.88;97036.97;5010313;28;20964;-68
2024/02/17 04:50:14;;;;;;;9.63;8.50;;;;;;;12.58;77.28;97036.91;5009289;28;20419;-68
2024/02/17 04:52:41;;;;;;;8.67;7.90;;;;;;;12.61;76.96;97038.53;5009152;28;20238;-69
2024/02/17 04:55:06;;;;;;;10.57;8.77;;;;;;;12.62;77.31;97050.81;5009692;28;20545;-68
2024/02/17 04:57:32;;;;;;;10.27;9.00;;;;;;;12.60;77.02;97047.38;5009638;28;20421;-68
2024/02/17 04:59:57;;;;;;;11.40;8.67;;;;;;;12.65;76.46;97048.88;5010008;28;20176;-67
2024/02/17 05:02:23;;;;;;;9.23;8.17;;;;;;;12.58;76.65;97057.13;5009693;28;21007;-68
2024/02/17 05:04:49;;;;;;;9.23;7.77;;;;;;;12.57;77.82;97066.78;5009358;28;20184;-68
2024/02/17 05:07:14;;;;;;;10.90;8.10;;;;;;;12.34;78.18;97062.47;5009106;28;20707;-68
2024/02/17 05:09:40;;;;;;;13.20;6.93;;;;;;;12.27;78.23;97067.09;5008635;28;20208;-68
2024/02/17 05:12:05;;;;;;;8.83;6.90;;;;;;;12.38;78.79;97071.06;5009199;28;20250;-69
2024/02/17 05:14:30;;;;;;;10.23;7.13;;;;;;;12.48;77.79;97070.66;5010266;28;20898;-69
2024/02/17 05:16:56;;;;;;;12.23;7.50;;;;;;;12.56;77.37;97082.63;5018430;28;20190;-69
2024/02/17 05:19:21;;;;;;;9.00;7.73;;;;;;;12.66;77.20;97083.97;5020657;28;20214;-67
2024/02/17 05:21:46;;;;;;;8.17;7.37;;;;;;;12.32;79.10;97087.97;5022364;28;20215;-68
2024/02/17 05:24:13;;;;;;;8.23;7.00;;;;;;;12.41;78.88;97090.25;5022665;28;20350;-67
2024/02/17 05:26:39;;;;;;;8.63;7.07;;;;;;;12.35;79.15;97094.88;5012846;28;20235;-67
2024/02/17 05:29:06;;;;;;;9.67;8.03;;;;;;;12.48;78.75;97102.25;5019876;28;20503;-68
2024/02/17 05:31:32;;;;;;;7.50;5.77;;;;;;;12.47;78.51;97103.19;5023537;28;20485;-67
2024/02/17 05:33:57;;;;;;;7.27;4.20;;;;;;;13.20;76.06;97105.44;5021204;28;20438;-67
2024/02/17 05:36:23;;;;;;;3.60;3.30;;;;;;;12.80;76.04;97113.22;5020296;28;20799;-67
2024/02/17 05:38:48;;;;;;;4.53;3.20;;;;;;;12.65;76.27;97114.72;5015730;28;20227;-67
2024/02/17 05:41:14;;;;;;;4.70;3.40;;;;;;;12.63;76.84;97118.34;5017934;28;20250;-68
2024/02/17 05:43:39;;;;;;;3.17;2.90;;;;;;;12.51;77.50;97132.84;5019679;28;20180;-67
2024/02/17 05:46:05;;;;;;;3.63;2.80;;;;;;;12.33;78.22;97133.56;5028267;28;20167;-68
2024/02/17 05:48:30;;;;;;;3.97;3.37;;;;;;;12.45;77.89;97139.22;5027968;28;20196;-67
2024/02/17 05:50:55;;;;;;;5.00;3.60;;;;;;;12.50;77.70;97139.91;5028440;28;20302;-68
2024/02/17 05:53:21;;;;;;;4.70;3.63;;;;;;;12.44;78.09;97145.38;5033799;28;20643;-68
2024/02/17 05:55:46;;;;;;;4.60;3.97;;;;;;;12.37;78.65;97149.19;5028032;28;20225;-68
2024/02/17 05:58:12;;;;;;;4.73;3.80;;;;;;;12.25;78.61;97150.50;5027651;28;20191;-67
2024/02/17 06:00:38;;;;;;;4.20;3.50;;;;;;;12.31;78.01;97162.59;5028195;28;20334;-68
2024/02/17 06:03:03;;;;;;;4.53;3.50;;;;;;;12.28;77.64;97157.44;5027766;28;20206;-67
2024/02/17 06:05:30;;;;;;;5.53;3.80;;;;;;;12.33;77.10;97157.25;5027773;28;20175;-67
2024/02/17 06:07:56;;;;;;;4.13;3.40;;;;;;;12.26;78.07;97165.41;5027307;28;20196;-68
2024/02/17 06:10:21;;;;;;;3.80;3.23;;;;;;;12.28;78.00;97167.97;5027504;28;20495;-68
2024/02/17 06:12:48;;;;;;;4.67;4.00;;;;;;;12.17;77.72;97176.28;5027486;28;20164;-67
2024/02/17 06:15:14;;;;;;;5.13;3.90;;;;;;;12.23;76.87;97176.03;5027459;28;20175;-68
2024/02/17 06:17:42;;;;;;;7.83;3.60;;;;;;;12.20;77.26;97180.56;5027352;28;21135;-67
2024/02/17 06:22:55;;;;;;;6.00;3.43;;;;;;;12.10;77.21;97185.31;5027222;28;20491;-68
2024/02/17 06:25:20;;;;;;;3.50;2.27;;;;;;;12.02;76.79;97187.34;5027257;28;20406;-68
2024/02/17 06:27:46;;;;;;;2.87;2.50;;;;;;;12.04;75.80;97185.53;5027269;28;20198;-68
2024/02/17 06:30:14;;;;;;;6.53;2.57;;;;;;;12.06;75.22;97192.44;5026959;28;20171;-68
2024/02/17 06:32:40;;;;;;;6.10;3.20;;;;;;;12.06;75.35;97197.72;5026804;28;20164;-68
2024/02/17 06:35:05;;;;;;;6.10;2.70;;;;;;;12.12;74.37;97198.41;5027737;28;20429;-68
2024/02/17 06:37:31;;;;;;;2.90;2.17;;;;;;;11.96;73.72;97198.13;5027281;28;20217;-68
2024/02/17 06:39:56;;;;;;;3.90;1.97;;;;;;;11.82;74.27;97206.47;5027220;28;20179;-68
2024/02/17 06:42:22;;;;;;;2.80;2.40;;;;;;;11.78;74.81;97212.75;5027097;28;20754;-68
2024/02/17 06:44:47;;;;;;;2.90;2.50;;;;;;;11.83;75.06;97216.97;5026919;28;20241;-67
2024/02/17 06:47:13;;;;;;;6.90;2.37;;;;;;;11.95;74.13;97222.69;5012791;28;20177;-67
2024/02/17 06:49:38;;;;;;;3.37;2.23;;;;;;;11.97;74.19;97226.97;5007106;28;20195;-68
2024/02/17 06:52:04;;;;;;;2.80;2.03;;;;;;;12.04;73.60;97225.84;5006892;28;20418;-68
2024/02/17 06:54:29;;;;;;;3.73;2.70;;;;;;;12.10;73.08;97226.56;5007362;28;20267;-69
2024/02/17 06:56:57;;;;;;;4.20;3.07;;;;;;;12.07;73.58;97228.38;5007143;28;20199;-68
2024/02/17 06:59:23;;;;;;;9.20;2.80;;;;;;;12.08;73.23;97234.50;5006988;28;20203;-68
2024/02/17 07:01:48;;;;;;;4.00;2.57;;;;;;;12.08;73.08;97235.34;5006764;28;20478;-69
2024/02/17 07:04:15;;;;;;;4.47;2.67;;;;;;;12.04;72.97;97239.00;5006404;28;20187;-68
2024/02/17 07:06:43;;;;;;;4.87;2.93;;;;;;;11.98;72.42;97244.50;5007503;28;20172;-68
2024/02/17 07:09:11;;;;;;;3.73;2.83;;;;;;;12.00;72.28;97247.06;5007171;28;20851;-69
2024/02/17 07:11:37;;;;;;;4.10;2.87;;;;;;;12.02;72.49;97247.88;5006517;28;20415;-68
2024/02/17 07:14:02;;;;;;;4.43;2.80;;;;;;;12.13;72.79;97258.00;5006659;28;20411;-68
2024/02/17 07:16:28;;;;;;;4.30;2.80;;;;;;;12.08;72.19;97255.56;5006910;28;20494;-68
2024/02/17 07:18:57;;;;;;;4.77;3.03;;;;;;;11.89;73.02;97267.66;5006432;28;20546;-68
2024/02/17 07:21:24;;;;;;;4.90;3.43;;;;;;;11.93;71.67;97269.22;5006336;28;20180;-68
2024/02/17 07:23:50;;;;;;;10.67;3.67;;;;;;;11.90;71.97;97269.34;5006549;28;20419;-69
2024/02/17 07:26:15;;;;;;;5.03;3.83;;;;;;;12.01;71.59;97275.94;5007129;28;21004;-67
2024/02/17 07:28:41;;;;;;;8.53;5.23;;;;;;;12.10;71.36;97287.06;5006334;28;20207;-69
2024/02/17 07:31:09;;;;;;;5.10;4.17;;;;;;;11.75;72.05;97279.47;5005815;28;20187;-68
2024/02/17 07:33:34;;;;;;;6.30;4.50;;;;;;;11.90;71.82;97290.38;5006228;28;20407;-68
2024/02/17 07:36:00;;;;;;;5.07;3.60;;;;;;;11.96;71.12;97301.56;5021451;28;20457;-68
2024/02/17 07:38:25;;;;;;;5.10;4.60;;;;;;;11.50;72.86;97303.06;5026286;28;20198;-68
2024/02/17 07:40:51;;;;;;;6.27;5.03;;;;;;;11.65;72.63;97299.94;5026953;28;20262;-68
2024/02/17 07:43:18;;;;;;;8.47;4.70;;;;;;;11.64;71.58;97303.47;5027545;28;20237;-69
2024/02/17 07:45:43;;;;;;;6.03;5.23;;;;;;;11.71;72.26;97309.41;5026047;28;20549;-66
2024/02/17 07:48:09;;;;;;;7.50;4.47;;;;;;;11.76;72.21;97315.34;5012804;28;20538;-69
2024/02/17 07:50:34;;;;;;;9.20;4.93;;;;;;;11.84;72.16;97323.84;5014721;28;20187;-68
2024/02/17 07:53:00;;;;;;;8.07;4.87;;;;;;;11.94;71.80;97332.31;5015437;28;20214;-69
2024/02/17 07:55:25;;;;;;;6.93;5.10;;;;;;;11.96;72.24;97333.13;5014917;28;20181;-69
2024/02/17 07:57:51;;;;;;;8.30;6.50;;;;;;;11.98;72.67;97335.72;5013601;28;20200;-69
2024/02/17 08:00:17;;;;;;;8.63;5.93;;;;;;;12.10;71.11;97337.91;5012246;28;20524;-68
2024/02/17 08:02:45;;;;;;;7.17;6.10;;;;;;;12.04;71.49;97346.00;5011850;28;20196;-69
2024/02/17 08:05:10;;;;;;;9.73;6.03;;;;;;;12.02;70.78;97353.09;5011749;28;20206;-69
2024/02/17 08:07:36;;;;;;;7.80;5.90;;;;;;;11.94;71.94;97363.03;5011331;28;20442;-69
2024/02/17 08:10:01;;;;;;;9.57;6.27;;;;;;;11.92;71.54;97363.06;5010857;28;20172;-68
2024/02/17 08:12:27;;;;;;;7.70;6.17;;;;;;;11.93;71.64;97361.28;5009859;28;20171;-68
2024/02/17 08:14:52;;;;;;;10.23;5.97;;;;;;;11.90;71.96;97367.53;5010708;28;20176;-69
2024/02/17 08:17:18;;;;;;;12.70;7.13;;;;;;;11.90;71.70;97372.78;5007095;28;20182;-69
2024/02/17 08:19:43;;;;;;;13.63;8.40;;;;;;;12.04;72.20;97367.06;5005630;28;20192;-69
2024/02/17 08:22:08;;;;;;;7.87;6.77;;;;;;;12.04;71.40;97370.53;5005645;28;20207;-69
2024/02/17 08:24:34;;;;;;;8.13;6.73;;;;;;;12.05;71.60;97380.16;5005442;28;20179;-69
2024/02/17 08:26:59;;;;;;;9.10;6.97;;;;;;;12.01;71.05;97375.91;5006468;28;20164;-68
2024/02/17 08:29:25;;;;;;;7.70;6.87;;;;;;;12.00;72.18;97389.09;5005727;28;20564;-69
2024/02/17 08:31:50;;;;;;;12.67;7.17;;;;;;;12.10;71.81;97390.53;5005443;28;20265;-69
2024/02/17 08:34:16;;;;;;;14.20;7.93;;;;;;;12.24;71.28;97390.06;5006541;28;20176;-68
2024/02/17 08:36:41;;;;;;;11.50;7.73;;;;;;;12.11;71.91;97391.38;5024885;28;20534;-67
2024/02/17 08:39:08;;;;;;;12.77;7.70;;;;;;;12.11;72.16;97394.03;5030008;28;20198;-69
2024/02/17 08:41:33;;;;;;;9.90;8.20;;;;;;;12.22;72.14;97399.78;5025447;28;20919;-69
2024/02/17 08:43:59;;;;;;;10.83;8.80;;;;;;;12.39;70.81;97404.47;5025565;28;20449;-69
2024/02/17 08:46:24;;;;;;;16.10;9.20;;;;;;;12.29;71.08;97403.94;5017441;28;20179;-68
2024/02/17 08:48:50;;;;;;;11.63;8.53;;;;;;;12.25;71.56;97416.31;5005310;28;20204;-68
2024/02/17 08:51:15;;;;;;;10.73;9.53;;;;;;;12.19;71.95;97415.66;5005128;28;20257;-69
2024/02/17 08:53:41;;;;;;;11.40;9.50;;;;;;;12.22;72.28;97424.31;5005227;28;20184;-68
2024/02/17 08:56:06;;;;;;;11.90;8.90;;;;;;;12.40;72.07;97414.94;5005334;28;20172;-68
2024/02/17 08:58:32;;;;;;;10.40;9.23;;;;;;;12.33;72.47;97417.81;5005766;28;20195;-68
2024/02/17 09:00:57;;;;;;;13.83;10.83;;;;;;;12.17;70.60;97423.63;5005833;28;20643;-68
2024/02/17 09:03:23;;;;;;;11.90;10.50;;;;;;;12.41;70.18;97423.69;5004946;28;20200;-68
2024/02/17 09:05:49;;;;;;;11.40;10.20;;;;;;;12.48;70.20;97420.78;5005479;28;20173;-69
2024/02/17 09:08:14;;;;;;;16.00;10.70;;;;;;;12.57;68.92;97422.25;5006703;28;20442;-68
2024/02/17 09:10:40;;;;;;;12.83;10.80;;;;;;;12.47;69.08;97432.25;5010990;28;20270;-68
2024/02/17 09:13:05;;;;;;;14.97;10.67;;;;;;;13.22;67.09;97427.78;5006801;28;20510;-68
2024/02/17 09:15:31;;;;;;;12.60;10.20;;;;;;;14.24;62.66;97424.63;5007533;28;20180;-68
2024/02/17 09:17:57;;;;;;;12.73;11.30;;;;;;;15.36;59.05;97419.69;5006037;28;20196;-68
2024/02/17 09:20:22;;;;;;;14.13;10.23;;;;;;;15.76;57.27;97428.41;5006111;28;20232;-68
2024/02/17 09:22:48;;;;;;;10.33;8.90;;;;;;;16.07;54.29;97422.47;5006146;28;20545;-67
2024/02/17 09:25:13;;;;;;;15.73;9.63;;;;;;;16.79;53.64;97417.97;5005035;28;20227;-68
2024/02/17 09:27:39;;;;;;;10.80;7.57;;;;;;;16.96;52.16;97431.19;5006990;28;20941;-68
2024/02/17 09:30:06;;;;;;;9.47;8.53;;;;;;;17.06;52.06;97434.22;5008801;28;20164;-68
2024/02/17 09:32:31;;;;;;;10.30;9.20;;;;;;;16.55;52.61;97434.16;5008985;28;20199;-68
2024/02/17 09:34:56;;;;;;;14.50;10.77;;;;;;;16.30;53.84;97435.44;5015591;28;20937;-67
2024/02/17 09:37:23;;;;;;;12.20;9.70;;;;;;;15.83;54.71;97443.91;5029527;28;20171;-68
2024/02/17 09:39:49;;;;;;;9.10;8.23;;;;;;;15.69;54.44;97448.13;5028602;28;20191;-67
2024/02/17 09:42:14;;;;;;;12.30;9.50;;;;;;;15.71;54.19;97455.09;5029004;28;20790;-68
2024/02/17 09:44:40;;;;;;;13.20;10.10;;;;;;;15.48;55.42;97448.22;5028980;28;20164;-68
2024/02/17 09:47:06;;;;;;;9.40;8.40;;;;;;;15.30;55.47;97457.00;5015769;28;20176;-68
2024/02/17 09:49:35;;;;;;;11.10;8.83;;;;;;;15.12;55.91;97463.97;5008346;28;20978;-69
2024/02/17 09:52:02;;;;;;;11.33;9.33;;;;;;;15.22;55.15;97471.41;5008146;28;20176;-68
2024/02/17 09:54:28;;;;;;;9.53;8.50;;;;;;;16.02;54.05;97472.16;5008512;28;20411;-69
2024/02/17 09:56:54;;;;;;;10.50;7.77;;;;;;;16.03;52.57;97473.84;5008690;28;20419;-69
2024/02/17 09:59:20;;;;;;;17.40;7.40;;;;;;;16.25;50.95;97473.66;5008253;28;20968;-68
2024/02/17 10:01:47;;;;;;;9.20;7.67;;;;;;;16.11;50.31;97477.00;5007551;28;20206;-68
2024/02/17 10:04:12;;;;;;;9.57;7.20;;;;;;;15.79;52.21;97487.34;5007862;28;20502;-69
2024/02/17 10:06:38;;;;;;;13.60;8.37;;;;;;;15.74;52.51;97489.34;5008165;28;20907;-68
2024/02/17 10:09:04;;;;;;;11.77;7.13;;;;;;;15.44;52.20;97489.81;5007875;28;20601;-66
2024/02/17 10:11:32;;;;;;;10.40;7.60;;;;;;;15.56;51.71;97495.47;5009797;28;20188;-67
2024/02/17 10:14:04;;;;;;;10.60;7.50;;;;;;;15.57;51.07;97495.41;5008095;28;20447;-68
2024/02/17 10:16:31;;;;;;;15.07;6.97;;;;;;;15.50;51.21;97498.41;5008497;28;20411;-67
2024/02/17 10:19:03;;;;;;;13.80;6.47;;;;;;;15.78;50.64;97509.44;5008000;28;20469;-68
2024/02/17 10:21:28;;;;;;;9.33;7.30;;;;;;;16.24;50.18;97498.44;5008010;28;20514;-68
2024/02/17 10:23:54;;;;;;;12.20;7.93;;;;;;;15.85;50.52;97505.59;5008501;28;20510;-68
2024/02/17 10:26:19;;;;;;;19.43;9.20;;;;;;;15.70;51.36;97506.28;5008750;28;20255;-66
2024/02/17 10:28:58;;;;;;;62.53;12.73;;;;;;;15.63;51.02;97508.31;5008159;28;20196;-67
2024/02/17 10:31:26;;;;;;;22.43;9.93;;;;;;;15.49;51.05;97508.09;5007729;28;20172;-68
2024/02/17 10:33:51;;;;;;;8.43;7.23;;;;;;;15.32;50.78;97516.81;5007932;28;20610;-69
2024/02/17 10:36:22;;;;;;;14.50;7.07;;;;;;;15.43;50.10;97517.19;5025209;28;20422;-70
2024/02/17 10:38:50;;;;;;;61.63;11.30;;;;;;;15.44;49.64;97521.53;5026088;28;20188;-69
2024/02/17 10:41:18;;;;;;;34.97;8.97;;;;;;;15.59;48.89;97521.75;5027322;28;20429;-68
2024/02/17 10:43:44;;;;;;;8.67;6.43;;;;;;;15.91;48.19;97519.47;5027437;28;20809;-69
2024/02/17 10:46:18;;;;;;;8.83;6.10;;;;;;;16.09;47.13;97516.78;5021791;28;21171;-68
2024/02/17 10:48:54;;;;;;;9.50;5.93;;;;;;;16.78;45.94;97522.25;5006836;28;20427;-69
2024/02/17 10:51:20;;;;;;;9.73;5.90;;;;;;;17.27;45.60;97523.25;5007469;28;20910;-67
2024/02/17 10:53:48;;;;;;;9.87;6.13;;;;;;;17.16;44.80;97528.25;5007908;28;20418;-69
2024/02/17 10:56:17;;;;;;;10.20;5.90;;;;;;;16.61;46.06;97529.28;5004252;28;20227;-69
2024/02/17 10:58:45;;;;;;;6.63;5.70;;;;;;;16.17;45.79;97539.41;5008753;28;20435;-68
2024/02/17 11:01:14;;;;;;;7.70;5.50;;;;;;;15.56;46.62;97541.28;5008164;28;20442;-68
2024/02/17 11:03:42;;;;;;;6.53;5.93;;;;;;;15.12;48.35;97553.84;5008331;28;20459;-67
2024/02/17 11:06:12;;;;;;;9.20;5.87;;;;;;;15.16;48.37;97551.00;5008325;28;20453;-67
2024/02/17 11:08:38;;;;;;;11.23;7.23;;;;;;;15.75;47.53;97538.69;5008618;28;20415;-68
2024/02/17 11:11:25;;;;;;;15.20;8.73;;;;;;;15.86;46.41;97541.69;5007063;28;20492;-68
2024/02/17 11:13:55;;;;;;;17.03;7.70;;;;;;;16.45;46.28;97545.06;5007621;28;20652;-68
2024/02/17 11:16:23;;;;;;;16.77;8.53;;;;;;;16.92;45.28;97538.34;5009047;28;20400;-69
2024/02/17 11:18:55;;;;;;;12.83;7.50;;;;;;;16.69;45.97;97537.69;5007539;28;20784;-67
2024/02/17 11:21:38;;;;;;;17.07;8.17;;;;;;;16.18;47.23;97549.94;5007230;28;20552;-68
2024/02/17 11:24:09;;;;;;;15.20;6.97;;;;;;;15.90;47.19;97546.84;5010376;28;20799;-68